Time;durP1;ratioP1;P1;durP2;ratioP2;P2;SDS_P1;SDS_P2;PMS_P1;PMS_P2;Temp;Humidity;BMP_temperature;BMP_pressure;BME280_temperature;BME280_humidity;BME280_pressure;Samples;Min_cycle;Max_cycle;Signal;HPM_P1;HPM_P2
2023/01/09 00:00:19;;;;;;;1.80;1.58;;;;;;;5.91;100.00;99279.97;5025180;28;20039;-56
2023/01/09 00:02:44;;;;;;;3.10;1.52;;;;;;;5.85;100.00;99267.50;5029034;28;20069;-56
2023/01/09 00:05:13;;;;;;;2.65;1.48;;;;;;;5.85;100.00;99275.38;5027287;28;20037;-57
2023/01/09 00:07:38;;;;;;;2.97;1.60;;;;;;;5.82;100.00;99275.75;5018695;28;20112;-55
2023/01/09 00:10:05;;;;;;;2.67;1.60;;;;;;;5.78;100.00;99285.78;5026142;28;20503;-55
2023/01/09 00:12:30;;;;;;;1.55;1.20;;;;;;;5.77;100.00;99281.50;5023482;28;20022;-55
2023/01/09 00:14:55;;;;;;;2.90;1.50;;;;;;;5.74;100.00;99285.31;5026706;28;20026;-56
2023/01/09 00:17:20;;;;;;;1.48;1.35;;;;;;;5.73;100.00;99294.16;5028129;28;20506;-56
2023/01/09 00:19:46;;;;;;;1.52;1.42;;;;;;;5.70;100.00;99289.25;5023803;28;20120;-57
2023/01/09 00:22:11;;;;;;;2.53;1.50;;;;;;;5.67;100.00;99300.09;5029904;28;20457;-55
2023/01/09 00:24:36;;;;;;;3.92;1.50;;;;;;;5.67;100.00;99297.47;5025246;28;20040;-55
2023/01/09 00:27:02;;;;;;;1.67;1.58;;;;;;;5.63;100.00;99293.53;5026965;28;20040;-57
2023/01/09 00:29:27;;;;;;;3.10;1.48;;;;;;;5.61;100.00;99303.38;5025857;28;20037;-57
2023/01/09 00:31:52;;;;;;;3.08;1.50;;;;;;;5.58;100.00;99295.84;5025587;28;20038;-56
2023/01/09 00:34:18;;;;;;;3.35;1.70;;;;;;;5.55;100.00;99304.88;5025355;28;20090;-56
2023/01/09 00:36:43;;;;;;;1.85;1.50;;;;;;;5.54;100.00;99307.69;5025274;28;20025;-55
2023/01/09 00:39:08;;;;;;;1.83;1.40;;;;;;;5.52;100.00;99299.94;5024491;28;20045;-56
2023/01/09 00:41:38;;;;;;;4.25;1.45;;;;;;;5.51;100.00;99301.78;5033153;28;20060;-55
2023/01/09 00:44:16;;;;;;;1.73;1.50;;;;;;;5.45;100.00;99297.19;5027913;28;20445;-55
2023/01/09 00:46:46;;;;;;;2.45;1.63;;;;;;;5.39;100.00;99300.47;5030931;28;20025;-55
2023/01/09 00:49:14;;;;;;;1.73;1.60;;;;;;;5.38;100.00;99306.72;5025591;28;20052;-55
2023/01/09 00:51:40;;;;;;;4.90;1.70;;;;;;;5.38;100.00;99306.72;5021881;28;20037;-56
2023/01/09 00:54:07;;;;;;;2.13;1.70;;;;;;;5.34;100.00;99305.41;5020176;28;20033;-56
2023/01/09 00:56:34;;;;;;;3.08;1.83;;;;;;;5.30;100.00;99306.72;5034594;28;20033;-56
2023/01/09 00:59:00;;;;;;;1.88;1.50;;;;;;;5.29;100.00;99300.66;5030206;28;20072;-55
2023/01/09 01:01:25;;;;;;;4.15;2.00;;;;;;;5.30;100.00;99304.91;5026532;28;20104;-56
2023/01/09 01:03:50;;;;;;;3.20;1.70;;;;;;;5.22;100.00;99308.34;5033436;28;20030;-55
2023/01/09 01:08:59;;;;;;;3.40;1.92;;;;;;;5.23;100.00;99304.75;5026030;28;20049;-56
2023/01/09 01:11:25;;;;;;;3.70;1.60;;;;;;;5.20;100.00;99299.81;5028755;28;20037;-56
2023/01/09 01:13:50;;;;;;;2.47;1.90;;;;;;;5.20;100.00;99310.34;5029364;28;20600;-56
2023/01/09 01:16:17;;;;;;;3.13;1.70;;;;;;;5.13;100.00;99304.06;5030012;28;20738;-55
2023/01/09 01:18:42;;;;;;;3.92;1.80;;;;;;;5.11;100.00;99306.06;5032697;28;20036;-56
2023/01/09 01:21:11;;;;;;;4.63;1.80;;;;;;;5.11;100.00;99306.06;5024784;28;20443;-58
2023/01/09 01:23:36;;;;;;;4.90;1.63;;;;;;;5.09;100.00;99310.66;5028273;28;20061;-56
2023/01/09 01:26:06;;;;;;;4.95;2.13;;;;;;;5.06;100.00;99313.59;5031711;28;20090;-55
2023/01/09 01:28:32;;;;;;;4.70;1.70;;;;;;;5.03;100.00;99320.00;5027821;28;20524;-56
2023/01/09 01:30:58;;;;;;;5.22;2.40;;;;;;;5.05;100.00;99317.22;5020336;28;20052;-57
2023/01/09 01:33:23;;;;;;;2.83;1.70;;;;;;;5.01;100.00;99321.97;5026089;28;20080;-57
2023/01/09 01:35:48;;;;;;;4.88;2.10;;;;;;;5.00;100.00;99319.50;5031981;28;20393;-56
2023/01/09 01:38:14;;;;;;;3.05;1.88;;;;;;;4.98;100.00;99328.38;5026787;28;20039;-56
2023/01/09 01:40:39;;;;;;;3.90;1.90;;;;;;;4.95;100.00;99333.94;5019150;28;20112;-56
2023/01/09 01:43:05;;;;;;;4.82;2.00;;;;;;;4.90;100.00;99323.13;5031901;28;20026;-56
2023/01/09 01:45:31;;;;;;;3.60;2.15;;;;;;;4.91;100.00;99335.28;5026426;28;20073;-56
2023/01/09 01:48:00;;;;;;;4.70;2.00;;;;;;;4.89;100.00;99329.34;5020845;28;20065;-54
2023/01/09 01:50:59;;;;;;;4.20;2.10;;;;;;;4.92;100.00;99344.78;5022896;28;20461;-55
2023/01/09 01:53:31;;;;;;;4.05;2.10;;;;;;;4.87;100.00;99335.75;5029442;28;20057;-56
2023/01/09 01:56:05;;;;;;;5.03;1.95;;;;;;;4.85;100.00;99331.47;5029549;28;20574;-55
2023/01/09 01:58:35;;;;;;;4.50;2.00;;;;;;;4.78;100.00;99327.84;5029241;28;20045;-56
2023/01/09 02:01:01;;;;;;;5.25;2.10;;;;;;;4.82;100.00;99333.59;5027710;28;20033;-55
2023/01/09 02:03:28;;;;;;;5.18;2.30;;;;;;;4.78;100.00;99335.72;5027622;28;20044;-56
2023/01/09 02:05:53;;;;;;;4.85;2.13;;;;;;;4.78;100.00;99334.94;5027788;28;20026;-56
2023/01/09 02:08:19;;;;;;;3.00;2.00;;;;;;;4.76;100.00;99339.50;5027499;28;20041;-56
2023/01/09 02:10:45;;;;;;;4.13;2.30;;;;;;;4.74;100.00;99342.28;5025066;28;20029;-55
2023/01/09 02:13:11;;;;;;;4.28;2.10;;;;;;;4.69;100.00;99332.25;5027273;28;20589;-56
2023/01/09 02:16:01;;;;;;;5.07;2.05;;;;;;;4.71;100.00;99340.81;5025280;28;20099;-55
2023/01/09 02:18:52;;;;;;;7.15;2.10;;;;;;;4.71;100.00;99338.19;5031861;28;20036;-58
2023/01/09 02:21:24;;;;;;;5.85;2.40;;;;;;;4.67;100.00;99338.66;5026680;28;20049;-57
2023/01/09 02:23:55;;;;;;;7.00;2.30;;;;;;;4.65;100.00;99332.75;5019319;28;20121;-58
2023/01/09 02:26:58;;;;;;;4.35;2.20;;;;;;;4.66;100.00;99335.22;5029010;28;20095;-55
2023/01/09 02:29:41;;;;;;;5.45;2.30;;;;;;;4.67;100.00;99333.41;5023732;28;20032;-56
2023/01/09 02:32:25;;;;;;;;;;;;;;;4.71;100.00;99334.72;5021469;28;20083;-56
2023/01/09 02:34:56;;;;;;;;;;;;;;;4.69;100.00;99334.09;5020191;28;20301;-56
2023/01/09 02:37:59;;;;;;;6.30;2.20;;;;;;;4.65;100.00;99333.59;5021581;28;19970;-56
2023/01/09 02:40:30;;;;;;;4.10;2.20;;;;;;;4.56;100.00;99322.22;5030829;28;20477;-56
2023/01/09 02:42:58;;;;;;;4.93;2.30;;;;;;;4.53;100.00;99325.16;5027933;28;20085;-57
2023/01/09 02:45:23;;;;;;;8.25;2.40;;;;;;;4.53;100.00;99329.56;5022781;28;20053;-56
2023/01/09 02:47:49;;;;;;;6.60;2.30;;;;;;;4.52;100.00;99333.19;5030119;28;20030;-56
2023/01/09 02:50:27;;;;;;;2.30;2.00;;;;;;;4.50;100.00;99329.91;5026215;28;20087;-56
2023/01/09 02:53:12;;;;;;;3.33;2.25;;;;;;;4.50;100.00;99330.75;5024308;28;20057;-57
2023/01/09 02:55:51;;;;;;;7.00;2.40;;;;;;;4.48;100.00;99324.00;5028016;28;20068;-55
2023/01/09 02:58:33;;;;;;;4.22;2.50;;;;;;;4.46;100.00;99318.06;5025749;28;20033;-57
2023/01/09 03:01:10;;;;;;;6.28;2.85;;;;;;;4.42;100.00;99307.91;5025670;28;20056;-56
2023/01/09 03:03:51;;;;;;;4.75;2.60;;;;;;;4.40;100.00;99303.81;5026040;28;20029;-56
2023/01/09 03:06:22;;;;;;;3.72;2.60;;;;;;;4.39;100.00;99308.22;5024824;28;20029;-56
2023/01/09 03:08:53;;;;;;;6.25;2.58;;;;;;;4.34;100.00;99305.25;5023816;28;20425;-56
2023/01/09 03:11:20;;;;;;;8.13;2.47;;;;;;;4.36;100.00;99303.28;5026840;28;20041;-58
2023/01/09 03:13:50;;;;;;;7.15;2.60;;;;;;;4.34;100.00;99305.25;5020584;28;20033;-55
2023/01/09 03:16:41;;;;;;;6.97;2.80;;;;;;;4.38;100.00;99309.19;5018355;28;20040;-56
2023/01/09 03:19:20;;;;;;;6.60;2.70;;;;;;;4.38;100.00;99322.31;5011387;28;20052;-55
2023/01/09 03:21:47;;;;;;;8.02;3.03;;;;;;;4.36;100.00;99319.03;5021901;28;20033;-56
2023/01/09 03:24:13;;;;;;;6.25;2.70;;;;;;;4.34;100.00;99326.25;5020472;28;20505;-56
2023/01/09 03:26:38;;;;;;;6.97;2.83;;;;;;;4.32;100.00;99325.59;5029474;28;20030;-55
2023/01/09 03:29:04;;;;;;;8.93;2.80;;;;;;;4.31;100.00;99326.56;5026272;28;20033;-55
2023/01/09 03:31:29;;;;;;;8.88;2.80;;;;;;;4.30;100.00;99324.94;5033788;28;20026;-54
2023/01/09 03:33:54;;;;;;;9.85;2.95;;;;;;;4.29;100.00;99325.88;5022727;28;20112;-56
2023/01/09 03:36:21;;;;;;;7.88;2.63;;;;;;;4.28;100.00;99325.06;5030273;28;20547;-56
2023/01/09 03:38:46;;;;;;;8.95;2.97;;;;;;;4.28;100.00;99317.22;5028711;28;20098;-55
2023/01/09 03:41:11;;;;;;;10.40;2.97;;;;;;;4.27;100.00;99315.56;5019940;28;20405;-56
2023/01/09 03:43:37;;;;;;;5.80;2.97;;;;;;;4.25;100.00;99320.13;5021735;28;20376;-55
2023/01/09 03:46:02;;;;;;;7.97;3.00;;;;;;;4.30;100.00;99314.44;5029113;28;20049;-57
2023/01/09 03:48:28;;;;;;;8.82;3.05;;;;;;;4.28;100.00;99321.63;5023256;28;20120;-56
2023/01/09 03:50:55;;;;;;;8.70;3.17;;;;;;;4.30;100.00;99319.69;5028601;28;20155;-55
2023/01/09 03:53:24;;;;;;;9.95;2.80;;;;;;;4.31;100.00;99318.69;5029029;28;20461;-56
2023/01/09 03:55:52;;;;;;;7.65;2.80;;;;;;;4.33;100.00;99323.78;5023090;28;20618;-55
2023/01/09 03:58:19;;;;;;;10.13;2.95;;;;;;;4.34;100.00;99321.00;5029230;28;20114;-56
2023/01/09 04:00:47;;;;;;;9.90;2.83;;;;;;;4.35;100.00;99322.66;5023416;28;20682;-55
2023/01/09 04:03:13;;;;;;;9.38;2.70;;;;;;;4.36;100.00;99319.03;5029336;28;20759;-56
2023/01/09 04:05:38;;;;;;;7.28;2.63;;;;;;;4.35;100.00;99320.03;5029029;28;20026;-56
2023/01/09 04:08:04;;;;;;;7.50;2.70;;;;;;;4.30;100.00;99314.44;5027155;28;20377;-56
2023/01/09 04:10:29;;;;;;;10.80;2.58;;;;;;;4.37;100.00;99320.69;5025923;28;20535;-55
2023/01/09 04:12:55;;;;;;;8.38;2.55;;;;;;;4.38;100.00;99317.06;5026225;28;20034;-58
2023/01/09 04:15:20;;;;;;;11.35;2.90;;;;;;;4.42;100.00;99323.66;5026034;28;20038;-55
2023/01/09 04:17:46;;;;;;;7.75;3.17;;;;;;;4.46;100.00;99325.94;5024832;28;20048;-56
2023/01/09 04:20:11;;;;;;;9.80;2.50;;;;;;;4.44;100.00;99321.69;5022940;28;20025;-56
2023/01/09 04:22:37;;;;;;;11.02;2.80;;;;;;;4.48;100.00;99321.38;5021325;28;20036;-55
2023/01/09 04:25:03;;;;;;;7.70;2.47;;;;;;;4.52;100.00;99325.31;5026722;28;20033;-57
2023/01/09 04:27:28;;;;;;;4.88;2.40;;;;;;;4.53;100.00;99319.91;5023530;28;20427;-55
2023/01/09 04:29:53;;;;;;;8.15;2.70;;;;;;;4.57;100.00;99331.75;5025864;28;20029;-55
2023/01/09 04:32:19;;;;;;;9.00;2.75;;;;;;;4.60;100.00;99330.59;5026254;28;20400;-56
2023/01/09 04:34:44;;;;;;;8.38;2.80;;;;;;;4.64;100.00;99326.66;5022920;28;20038;-56
2023/01/09 04:37:09;;;;;;;8.48;2.63;;;;;;;4.66;100.00;99324.72;5024535;28;20033;-55
2023/01/09 04:39:36;;;;;;;6.72;2.63;;;;;;;4.67;100.00;99334.22;5028164;28;20033;-55
2023/01/09 04:42:01;;;;;;;8.95;2.60;;;;;;;4.69;100.00;99328.81;5028213;28;20025;-56
2023/01/09 04:44:26;;;;;;;8.40;2.60;;;;;;;4.72;100.00;99323.25;5021663;28;20112;-56
2023/01/09 04:46:54;;;;;;;10.57;2.70;;;;;;;4.76;100.00;99323.75;5027653;28;20131;-57
2023/01/09 04:49:20;;;;;;;7.47;2.40;;;;;;;4.75;100.00;99322.09;5021546;28;20037;-57
2023/01/09 04:51:45;;;;;;;11.05;2.25;;;;;;;4.80;100.00;99325.06;5026686;28;20649;-56
2023/01/09 04:54:10;;;;;;;6.20;2.45;;;;;;;4.82;100.00;99328.34;5020910;28;20472;-56
2023/01/09 04:56:36;;;;;;;10.70;2.30;;;;;;;4.82;100.00;99323.94;5027159;28;20061;-57
2023/01/09 04:59:03;;;;;;;6.20;2.28;;;;;;;4.88;100.00;99325.06;5025794;28;20034;-55
2023/01/09 05:01:28;;;;;;;11.25;2.50;;;;;;;4.89;100.00;99320.66;5024614;28;20725;-56
2023/01/09 05:03:54;;;;;;;13.00;2.60;;;;;;;4.90;100.00;99317.88;5019304;28;20061;-55
2023/01/09 05:06:19;;;;;;;9.90;2.50;;;;;;;4.94;100.00;99321.78;5024887;28;20472;-57
2023/01/09 05:08:44;;;;;;;11.10;2.53;;;;;;;4.95;100.00;99328.69;5023797;28;20038;-56
2023/01/09 05:11:10;;;;;;;9.07;2.67;;;;;;;4.94;100.00;99324.41;5023610;28;20029;-56
2023/01/09 05:13:35;;;;;;;10.45;2.60;;;;;;;5.01;100.00;99327.22;5021969;28;20029;-56
2023/01/09 05:16:01;;;;;;;9.13;2.65;;;;;;;5.02;100.00;99325.44;5024695;28;20029;-55
2023/01/09 05:18:26;;;;;;;7.88;2.40;;;;;;;5.00;100.00;99315.09;5022481;28;20044;-56
2023/01/09 05:20:51;;;;;;;10.23;2.60;;;;;;;5.03;100.00;99319.19;5023896;28;20029;-56
2023/01/09 05:23:16;;;;;;;7.22;2.42;;;;;;;5.03;100.00;99314.75;5025420;28;20048;-56
2023/01/09 05:25:42;;;;;;;11.98;2.53;;;;;;;5.00;100.00;99309.00;5027163;28;20052;-55
2023/01/09 05:28:07;;;;;;;12.82;2.90;;;;;;;5.06;100.00;99318.84;5030571;28;20382;-55
2023/01/09 05:30:32;;;;;;;11.27;2.80;;;;;;;5.06;100.00;99308.34;5028867;28;20481;-55
2023/01/09 05:32:58;;;;;;;9.43;2.50;;;;;;;5.07;100.00;99304.72;5022150;28;20370;-56
2023/01/09 05:35:23;;;;;;;9.45;2.47;;;;;;;5.09;100.00;99314.09;5031882;28;20025;-57
2023/01/09 05:37:48;;;;;;;10.02;2.78;;;;;;;5.12;100.00;99307.69;5030457;28;20023;-56
2023/01/09 05:40:14;;;;;;;9.88;2.63;;;;;;;5.16;100.00;99309.03;5032192;28;20104;-56
2023/01/09 05:42:41;;;;;;;8.15;2.80;;;;;;;5.11;100.00;99290.28;5025206;28;20025;-56
2023/01/09 05:45:07;;;;;;;11.93;2.40;;;;;;;5.17;100.00;99305.41;5028454;28;20037;-56
2023/01/09 05:47:32;;;;;;;9.75;2.75;;;;;;;5.19;100.00;99303.41;5028214;28;20173;-56
2023/01/09 05:49:59;;;;;;;10.15;2.88;;;;;;;5.19;100.00;99300.00;5028892;28;20033;-56
2023/01/09 05:52:24;;;;;;;9.30;2.70;;;;;;;5.20;100.00;99299.81;5029134;28;20480;-56
2023/01/09 05:54:50;;;;;;;10.77;2.80;;;;;;;5.22;100.00;99292.59;5025396;28;20053;-56
2023/01/09 05:57:15;;;;;;;11.63;2.80;;;;;;;5.25;100.00;99296.69;5031551;28;20074;-56
2023/01/09 05:59:40;;;;;;;8.40;2.30;;;;;;;5.23;100.00;99282.91;5025182;28;20033;-56
2023/01/09 06:02:06;;;;;;;10.15;2.75;;;;;;;5.28;100.00;99295.56;5029143;28;20036;-56
2023/01/09 06:04:31;;;;;;;9.95;2.50;;;;;;;5.30;100.00;99293.56;5025850;28;20480;-55
2023/01/09 06:06:56;;;;;;;10.73;2.70;;;;;;;5.32;100.00;99299.50;5023655;28;20045;-56
2023/01/09 06:09:22;;;;;;;9.52;2.85;;;;;;;5.34;100.00;99300.16;5026445;28;20087;-54
2023/01/09 06:11:47;;;;;;;12.68;2.80;;;;;;;5.34;100.00;99282.56;5018870;28;20095;-55
2023/01/09 06:14:13;;;;;;;11.15;2.60;;;;;;;5.39;100.00;99282.06;5029050;28;20037;-56
2023/01/09 06:16:38;;;;;;;10.98;2.70;;;;;;;5.44;100.00;99292.91;5028143;28;20034;-55
2023/01/09 06:19:04;;;;;;;13.98;2.78;;;;;;;5.43;100.00;99293.06;5024457;28;20033;-56
2023/01/09 06:21:30;;;;;;;9.82;2.42;;;;;;;5.43;100.00;99287.81;5026085;28;20029;-56
2023/01/09 06:23:56;;;;;;;11.13;2.70;;;;;;;5.50;100.00;99294.88;5025847;28;20135;-55
2023/01/09 06:26:21;;;;;;;10.48;2.65;;;;;;;5.53;100.00;99299.00;5029639;28;20056;-55
2023/01/09 06:28:46;;;;;;;13.63;2.97;;;;;;;5.54;100.00;99294.53;5027330;28;20061;-56
2023/01/09 06:31:12;;;;;;;14.02;2.80;;;;;;;5.55;100.00;99298.78;5029468;28;20037;-55
2023/01/09 06:33:37;;;;;;;10.25;2.45;;;;;;;5.62;100.00;99299.75;5023376;28;20080;-56
2023/01/09 06:36:03;;;;;;;12.68;2.70;;;;;;;5.62;99.89;99297.13;5021096;28;20370;-57
2023/01/09 06:38:28;;;;;;;13.23;3.05;;;;;;;5.61;100.00;99308.66;5021697;28;20067;-55
2023/01/09 06:40:54;;;;;;;16.60;3.30;;;;;;;5.62;100.00;99302.41;5022048;28;20033;-57
2023/01/09 06:43:19;;;;;;;13.13;2.90;;;;;;;5.65;99.41;99302.06;5018469;28;20098;-54
2023/01/09 06:45:44;;;;;;;11.57;2.75;;;;;;;5.67;99.71;99300.09;5019144;28;20475;-55
2023/01/09 06:48:10;;;;;;;10.88;2.90;;;;;;;5.72;98.98;99318.81;5020597;28;20520;-57
2023/01/09 06:50:36;;;;;;;10.32;2.35;;;;;;;5.70;99.12;99310.28;5020651;28;20037;-56
2023/01/09 06:53:01;;;;;;;13.55;2.70;;;;;;;5.73;98.68;99309.94;5024056;28;20041;-56
2023/01/09 06:55:26;;;;;;;10.75;2.60;;;;;;;5.76;98.70;99314.88;5019299;28;20034;-58
2023/01/09 06:57:52;;;;;;;10.18;2.30;;;;;;;5.76;99.07;99304.34;5024478;28;20069;-58
2023/01/09 07:00:17;;;;;;;9.32;2.35;;;;;;;5.78;98.91;99314.72;5022249;28;20525;-56
2023/01/09 07:02:43;;;;;;;8.10;2.40;;;;;;;5.81;98.33;99316.19;5020471;28;20025;-53
2023/01/09 07:05:10;;;;;;;14.73;2.47;;;;;;;5.85;97.52;99322.75;5024907;28;20469;-54
2023/01/09 07:07:36;;;;;;;9.02;2.70;;;;;;;5.90;97.42;99325.69;5026584;28;20025;-55
2023/01/09 07:10:01;;;;;;;9.32;2.40;;;;;;;5.90;97.46;99320.44;5021580;28;20033;-56
2023/01/09 07:12:26;;;;;;;10.25;2.40;;;;;;;5.90;97.79;99326.53;5019816;28;20382;-55
2023/01/09 07:14:52;;;;;;;10.02;2.33;;;;;;;5.98;97.36;99330.97;5027784;28;20117;-55
2023/01/09 07:17:17;;;;;;;11.75;2.90;;;;;;;5.95;98.00;99343.59;5023803;28;20385;-55
2023/01/09 07:19:42;;;;;;;6.95;2.55;;;;;;;5.95;98.25;99349.69;5024034;28;20040;-56
2023/01/09 07:22:09;;;;;;;9.02;2.60;;;;;;;5.91;99.01;99348.38;5020053;28;20472;-56
2023/01/09 07:24:34;;;;;;;10.55;2.38;;;;;;;6.00;97.71;99350.03;5019077;28;20112;-56
2023/01/09 07:27:00;;;;;;;10.48;2.60;;;;;;;5.97;98.22;99352.16;5020310;28;20441;-56
2023/01/09 07:29:25;;;;;;;10.82;2.92;;;;;;;5.87;100.00;99357.63;5024877;28;20044;-55
2023/01/09 07:31:50;;;;;;;10.48;2.55;;;;;;;5.82;100.00;99370.44;5021036;28;20029;-55
2023/01/09 07:34:16;;;;;;;11.38;2.90;;;;;;;5.90;99.90;99373.06;5025953;28;20045;-55
2023/01/09 07:36:43;;;;;;;10.40;2.65;;;;;;;5.97;99.19;99373.22;5022148;28;20029;-54
2023/01/09 07:39:08;;;;;;;9.80;3.10;;;;;;;5.82;100.00;99373.06;5024053;28;20095;-55
2023/01/09 07:41:34;;;;;;;9.60;2.72;;;;;;;5.83;100.00;99372.09;5026263;28;20469;-55
2023/01/09 07:43:59;;;;;;;9.43;3.08;;;;;;;5.79;100.00;99388.19;5021862;28;20034;-55
2023/01/09 07:46:24;;;;;;;11.05;2.85;;;;;;;5.75;100.00;99386.91;5028292;28;20037;-55
2023/01/09 07:48:50;;;;;;;13.00;3.33;;;;;;;5.75;100.00;99396.59;5029906;28;20025;-54
2023/01/09 07:51:15;;;;;;;8.13;2.90;;;;;;;5.79;100.00;99393.44;5024710;28;20471;-55
2023/01/09 07:53:40;;;;;;;10.63;3.10;;;;;;;5.73;100.00;99391.47;5020965;28;20032;-54
2023/01/09 07:56:06;;;;;;;10.18;2.85;;;;;;;5.75;100.00;99407.94;5023745;28;20036;-55
2023/01/09 07:58:31;;;;;;;10.63;2.97;;;;;;;5.77;100.00;99405.97;5028187;28;20041;-53
2023/01/09 08:00:56;;;;;;;11.98;3.20;;;;;;;5.77;100.00;99386.72;5028184;28;20045;-56
2023/01/09 08:03:21;;;;;;;13.43;3.20;;;;;;;5.76;100.00;99409.56;5024414;28;20030;-55
2023/01/09 08:05:47;;;;;;;10.68;2.95;;;;;;;5.74;100.00;99411.56;5026005;28;20112;-58
2023/01/09 08:08:13;;;;;;;10.27;2.92;;;;;;;5.75;100.00;99413.19;5029902;28;20030;-59
2023/01/09 08:10:39;;;;;;;12.38;3.20;;;;;;;5.77;100.00;99416.47;5026428;28;20021;-56
2023/01/09 08:13:04;;;;;;;8.27;3.03;;;;;;;5.74;100.00;99424.72;5029835;28;20031;-55
2023/01/09 08:15:29;;;;;;;11.18;2.92;;;;;;;5.79;100.00;99421.59;5029683;28;20087;-56
2023/01/09 08:17:55;;;;;;;10.73;3.10;;;;;;;5.80;100.00;99436.38;5026740;28;20068;-56
2023/01/09 08:20:20;;;;;;;9.93;3.00;;;;;;;5.75;100.00;99433.41;5029621;28;20101;-55
2023/01/09 08:22:48;;;;;;;7.53;3.20;;;;;;;5.74;100.00;99437.88;5022778;28;20033;-56
2023/01/09 08:25:14;;;;;;;12.13;3.40;;;;;;;5.82;100.00;99438.84;5028311;28;20072;-58
2023/01/09 08:27:39;;;;;;;10.20;3.28;;;;;;;5.78;100.00;99444.41;5026305;28;20045;-56
2023/01/09 08:30:05;;;;;;;11.18;3.08;;;;;;;5.90;100.00;99452.00;5030378;28;20026;-56
2023/01/09 08:32:31;;;;;;;13.50;3.50;;;;;;;5.84;100.00;99457.91;5029832;28;20461;-56
2023/01/09 08:34:56;;;;;;;14.82;3.80;;;;;;;5.87;100.00;99479.44;5024836;28;20117;-55
2023/01/09 08:37:21;;;;;;;9.25;3.65;;;;;;;5.83;100.00;99482.56;5019367;28;20044;-55
2023/01/09 08:39:47;;;;;;;10.18;3.67;;;;;;;5.82;100.00;99475.69;5028092;28;20082;-57
2023/01/09 08:47:40;;;;;;;11.50;3.85;;;;;;;5.77;100.00;99479.63;5014997;28;20062;-56
2023/01/09 08:50:05;;;;;;;10.65;3.88;;;;;;;5.76;100.00;99488.50;5023904;28;20026;-57
2023/01/09 08:52:31;;;;;;;9.02;3.33;;;;;;;5.84;100.00;99494.75;5024066;28;20135;-59
2023/01/09 08:54:57;;;;;;;11.65;3.50;;;;;;;5.73;100.00;99499.31;5019862;28;20115;-56
2023/01/09 08:57:23;;;;;;;8.65;3.50;;;;;;;5.71;100.00;99501.31;5024412;28;20673;-55
2023/01/09 08:59:48;;;;;;;9.23;3.75;;;;;;;5.71;100.00;99506.56;5022490;28;20029;-56
2023/01/09 09:02:13;;;;;;;9.13;3.50;;;;;;;5.83;100.00;99517.63;5032940;28;20083;-55
2023/01/09 09:04:39;;;;;;;10.23;3.45;;;;;;;5.77;100.00;99516.44;5029027;28;20025;-55
2023/01/09 09:07:04;;;;;;;10.57;3.38;;;;;;;5.73;100.00;99527.47;5032626;28;20128;-54
2023/01/09 09:09:30;;;;;;;10.70;3.95;;;;;;;5.69;100.00;99532.22;5022634;28;20032;-57
2023/01/09 09:11:55;;;;;;;12.30;4.55;;;;;;;5.72;100.00;99534.50;5025304;28;20056;-57
2023/01/09 09:17:04;;;;;;;10.48;4.10;;;;;;;5.74;100.00;99548.34;5030963;28;20103;-55
2023/01/09 09:19:29;;;;;;;10.90;4.40;;;;;;;5.71;100.00;99551.28;5030841;28;20045;-57
2023/01/09 09:21:55;;;;;;;12.55;4.45;;;;;;;5.74;100.00;99558.88;5031096;28;20029;-57
2023/01/09 09:24:21;;;;;;;10.02;4.35;;;;;;;5.73;100.00;99557.19;5031464;28;20033;-57
2023/01/09 09:26:46;;;;;;;9.30;4.28;;;;;;;5.75;100.00;99565.78;5027488;28;20481;-58
2023/01/09 09:29:11;;;;;;;16.58;4.90;;;;;;;5.78;100.00;99570.69;5021553;28;20045;-57
2023/01/09 09:31:40;;;;;;;9.73;4.68;;;;;;;5.71;100.00;99574.97;5030985;28;20041;-58
2023/01/09 09:34:06;;;;;;;13.23;5.90;;;;;;;5.70;100.00;99575.94;5032579;28;20040;-57
2023/01/09 09:36:31;;;;;;;13.00;5.85;;;;;;;5.68;100.00;99572.66;5029440;28;20037;-57
2023/01/09 09:38:57;;;;;;;15.00;7.28;;;;;;;5.71;100.00;99584.66;5028548;28;20044;-58
2023/01/09 09:44:43;;;;;;;13.07;4.90;;;;;;;5.67;100.00;99584.16;5024702;28;20048;-57
2023/01/09 09:47:34;;;;;;;14.18;5.10;;;;;;;5.76;100.00;99604.25;5025563;28;20029;-58
2023/01/09 09:50:21;;;;;;;15.43;5.63;;;;;;;5.76;100.00;99614.75;5026338;28;20048;-57
2023/01/09 09:52:56;;;;;;;11.93;6.03;;;;;;;5.76;100.00;99620.03;5018674;28;20394;-57
2023/01/09 09:55:37;;;;;;;11.63;4.68;;;;;;;5.90;100.00;99615.13;5025648;28;20033;-56
2023/01/09 09:58:10;;;;;;;11.55;5.20;;;;;;;5.79;100.00;99629.41;5028122;28;20041;-57
2023/01/09 10:00:35;;;;;;;13.02;5.20;;;;;;;5.80;100.00;99636.31;5028424;28;20049;-57
2023/01/09 10:03:05;;;;;;;15.63;5.88;;;;;;;5.81;100.00;99647.66;5030670;28;20018;-57
2023/01/09 10:05:38;;;;;;;14.63;5.85;;;;;;;5.83;100.00;99645.69;5027753;28;20025;-57
2023/01/09 10:08:14;;;;;;;12.45;5.30;;;;;;;5.85;100.00;99648.97;5024294;28;20546;-57
2023/01/09 10:10:46;;;;;;;11.77;5.05;;;;;;;5.78;100.00;99654.06;5027835;28;20497;-58
2023/01/09 10:16:21;;;;;;;13.30;5.45;;;;;;;6.00;100.00;99668.44;5024014;28;20052;-57
2023/01/09 10:18:57;;;;;;;13.02;5.80;;;;;;;6.01;100.00;99680.59;5025107;28;20025;-57
2023/01/09 10:21:31;;;;;;;12.38;6.28;;;;;;;5.92;100.00;99674.50;5026211;28;20033;-57
2023/01/09 10:24:03;;;;;;;12.40;5.90;;;;;;;6.03;100.00;99677.84;5033282;28;20048;-57
2023/01/09 10:26:47;;;;;;;12.18;5.53;;;;;;;6.17;100.00;99684.31;5028382;28;20041;-56
2023/01/09 10:29:40;;;;;;;11.52;5.30;;;;;;;6.13;100.00;99685.59;5028907;28;20661;-58
2023/01/09 10:32:19;;;;;;;14.25;7.15;;;;;;;6.08;100.00;99695.78;5029448;28;20112;-57
2023/01/09 10:34:56;;;;;;;12.85;5.55;;;;;;;6.01;100.00;99677.97;5027818;28;20485;-57
2023/01/09 10:37:28;;;;;;;15.25;5.13;;;;;;;6.02;100.00;99687.53;5028913;28;20072;-60
2023/01/09 10:39:58;;;;;;;12.18;5.90;;;;;;;5.96;100.00;99682.91;5027373;28;20044;-57
2023/01/09 10:42:36;;;;;;;12.75;5.13;;;;;;;6.00;100.00;99697.38;5021846;28;20038;-58
2023/01/09 10:45:14;;;;;;;14.13;5.50;;;;;;;6.00;100.00;99686.84;5022834;28;20189;-57
2023/01/09 10:47:42;;;;;;;13.93;6.20;;;;;;;6.00;100.00;99689.50;5028939;28;21015;-57
2023/01/09 10:50:22;;;;;;;13.88;6.05;;;;;;;6.02;100.00;99697.25;5018066;28;20473;-59
2023/01/09 10:52:51;;;;;;;14.85;6.47;;;;;;;6.04;100.00;99697.91;5024972;28;20469;-56
2023/01/09 10:55:25;;;;;;;16.40;7.68;;;;;;;6.02;100.00;99700.69;5029580;28;20493;-57
2023/01/09 10:58:00;;;;;;;15.20;6.97;;;;;;;6.12;100.00;99705.03;5015778;28;20040;-58
2023/01/09 11:00:26;;;;;;;13.20;5.50;;;;;;;6.27;100.00;99706.03;5020140;28;20509;-58
2023/01/09 11:02:52;;;;;;;12.82;5.85;;;;;;;6.30;100.00;99704.88;5021433;28;20064;-59
2023/01/09 11:05:24;;;;;;;12.60;6.25;;;;;;;6.34;100.00;99711.50;5018895;28;21235;-57
2023/01/09 11:07:58;;;;;;;10.45;5.43;;;;;;;6.49;100.00;99709.03;5021287;28;20102;-56
2023/01/09 11:10:44;;;;;;;12.73;5.88;;;;;;;6.60;100.00;99710.53;5019010;28;20396;-56
2023/01/09 11:13:17;;;;;;;16.40;5.63;;;;;;;6.57;100.00;99716.13;5019487;28;20033;-55
2023/01/09 11:15:42;;;;;;;15.77;6.40;;;;;;;6.58;100.00;99715.94;5019725;28;20033;-57
2023/01/09 11:18:19;;;;;;;11.95;4.80;;;;;;;6.79;100.00;99714.66;5017839;28;20042;-58
2023/01/09 11:20:44;;;;;;;13.38;5.63;;;;;;;6.60;100.00;99721.06;5018494;28;20523;-56
2023/01/09 11:23:27;;;;;;;13.93;5.57;;;;;;;6.58;100.00;99717.78;5020971;28;20034;-57
2023/01/09 11:25:54;;;;;;;14.82;5.75;;;;;;;6.63;100.00;99727.81;5019245;28;20030;-59
2023/01/09 11:28:20;;;;;;;14.85;5.90;;;;;;;6.61;100.00;99735.06;5020221;28;20473;-58
2023/01/09 11:31:01;;;;;;;16.83;6.05;;;;;;;6.68;100.00;99731.63;5018960;28;20106;-58
2023/01/09 11:33:35;;;;;;;16.23;6.20;;;;;;;6.66;100.00;99740.69;5021212;28;20120;-57
2023/01/09 11:36:12;;;;;;;12.70;5.90;;;;;;;6.72;100.00;99740.03;5018826;28;20037;-58
2023/01/09 11:38:48;;;;;;;14.90;5.80;;;;;;;6.66;100.00;99751.22;5017494;28;20046;-56
2023/01/09 11:41:31;;;;;;;16.73;6.10;;;;;;;6.60;100.00;99757.94;5018571;28;20064;-56
2023/01/09 11:43:58;;;;;;;16.58;8.10;;;;;;;6.59;100.00;99751.88;5018462;28;20037;-56
2023/01/09 11:46:31;;;;;;;17.58;7.50;;;;;;;6.59;100.00;99756.31;5016130;28;20065;-56
2023/01/09 11:48:58;;;;;;;14.95;6.45;;;;;;;6.49;100.00;99761.72;5018382;28;20034;-57
2023/01/09 11:51:34;;;;;;;13.55;7.00;;;;;;;6.53;100.00;99763.06;5016443;28;20037;-54
2023/01/09 11:54:14;;;;;;;14.70;6.90;;;;;;;6.49;100.00;99766.16;5020008;28;20030;-55